createdAt,value
2023-12-13T00:00:38.383Z,3.10
2023-12-13T00:05:41.548Z,3.27
2023-12-13T00:10:46.106Z,2.80
2023-12-13T00:15:49.303Z,4.37
2023-12-13T00:20:52.460Z,4.10
2023-12-13T00:25:56.962Z,3.97
2023-12-13T00:31:00.014Z,4.53
2023-12-13T00:36:03.482Z,4.57
2023-12-13T00:41:08.327Z,5.37
2023-12-13T00:46:20.812Z,4.93
2023-12-13T00:51:25.228Z,5.00
2023-12-13T00:56:31.955Z,4.67
2023-12-13T01:01:35.041Z,5.33
2023-12-13T01:06:38.417Z,10.00
2023-12-13T01:11:42.917Z,10.57
2023-12-13T01:16:46.207Z,7.20
2023-12-13T01:21:49.300Z,7.40
2023-12-13T01:26:53.763Z,6.57
2023-12-13T01:31:56.933Z,8.50
2023-12-13T01:37:00.049Z,7.53
2023-12-13T01:42:06.373Z,6.77
2023-12-13T01:47:10.813Z,6.50
2023-12-13T01:52:15.960Z,5.93
2023-12-13T01:57:21.608Z,6.63
2023-12-13T02:02:25.013Z,6.83
2023-12-13T02:07:28.974Z,6.30
2023-12-13T02:12:33.541Z,5.77
2023-12-13T02:17:36.948Z,6.13
2023-12-13T02:22:41.684Z,6.33
2023-12-13T02:27:44.905Z,5.80
2023-12-13T02:32:48.025Z,5.43
2023-12-13T02:37:52.564Z,6.40
2023-12-13T02:42:56.287Z,5.73
2023-12-13T02:48:01.121Z,6.00
2023-12-13T02:53:05.890Z,5.80
2023-12-13T02:58:08.977Z,6.40
2023-12-13T03:03:12.160Z,5.00
2023-12-13T03:08:18.519Z,7.50
2023-12-13T03:13:21.641Z,6.33
2023-12-13T03:18:25.126Z,6.40
2023-12-13T03:23:29.606Z,6.70
2023-12-13T03:28:32.919Z,6.77
2023-12-13T03:33:36.195Z,6.70
2023-12-13T03:38:40.659Z,6.93
2023-12-13T03:43:43.768Z,6.43
2023-12-13T03:48:46.929Z,6.70
2023-12-13T03:53:51.452Z,6.37
2023-12-13T03:58:54.552Z,6.37
2023-12-13T04:03:57.697Z,5.70
2023-12-13T04:09:02.213Z,7.17
2023-12-13T04:14:05.579Z,7.27
2023-12-13T04:19:08.784Z,10.63
2023-12-13T04:24:13.271Z,9.13
2023-12-13T04:29:16.412Z,10.03
2023-12-13T04:34:19.548Z,9.73
2023-12-13T04:39:24.041Z,8.73
2023-12-13T04:44:29.114Z,8.53
2023-12-13T04:49:32.520Z,10.10
2023-12-13T04:54:38.536Z,10.17
2023-12-13T04:59:41.598Z,10.53
2023-12-13T05:04:44.970Z,11.70
2023-12-13T05:09:49.568Z,12.00
2023-12-13T05:14:52.687Z,10.23
2023-12-13T05:19:56.574Z,10.83
2023-12-13T05:25:01.191Z,10.67
2023-12-13T05:30:04.672Z,11.03
2023-12-13T05:35:08.616Z,10.10
2023-12-13T05:40:14.173Z,12.10
2023-12-13T05:45:17.426Z,12.37
2023-12-13T05:50:20.594Z,11.47
2023-12-13T05:55:25.167Z,12.60
2023-12-13T06:00:28.293Z,12.47
2023-12-13T06:05:31.525Z,12.13
2023-12-13T06:10:36.840Z,9.50
2023-12-13T06:15:39.949Z,6.53
2023-12-13T06:20:43.065Z,3.30
2023-12-13T06:25:47.652Z,2.43
2023-12-13T06:30:50.808Z,2.10
2023-12-13T06:35:54.676Z,2.70
2023-12-13T06:40:59.194Z,2.00
2023-12-13T06:46:02.334Z,2.87
2023-12-13T06:51:05.753Z,2.50
2023-12-13T06:56:11.096Z,2.20
2023-12-13T07:01:14.286Z,2.53
2023-12-13T07:06:19.271Z,2.30
2023-12-13T07:11:25.461Z,2.60
2023-12-13T07:16:29.683Z,2.90
2023-12-13T07:21:32.802Z,3.10
2023-12-13T07:26:37.235Z,3.10
2023-12-13T07:31:41.635Z,2.93
2023-12-13T07:36:49.594Z,2.50
2023-12-13T07:41:54.018Z,2.30
2023-12-13T07:46:57.237Z,2.17
2023-12-13T07:52:00.357Z,2.40
2023-12-13T07:57:05.231Z,2.30
2023-12-13T08:02:08.301Z,11.80
2023-12-13T08:07:11.683Z,3.57
2023-12-13T08:12:16.226Z,2.50
2023-12-13T08:17:19.321Z,2.20
2023-12-13T08:22:22.535Z,2.27
2023-12-13T08:27:27.067Z,2.60
2023-12-13T08:32:30.855Z,2.70
2023-12-13T08:37:34.344Z,2.37
2023-12-13T08:42:42.791Z,2.53
2023-12-13T08:47:49.038Z,2.97
2023-12-13T08:52:52.768Z,2.33
2023-12-13T08:57:57.346Z,3.10
2023-12-13T09:03:00.504Z,2.57
2023-12-13T09:08:04.899Z,2.70
2023-12-13T09:13:09.442Z,2.80
2023-12-13T09:18:12.819Z,3.03
2023-12-13T09:23:22.786Z,2.83
2023-12-13T09:28:27.295Z,2.67
2023-12-13T09:33:30.497Z,2.70
2023-12-13T09:38:33.579Z,3.27
2023-12-13T09:43:41.915Z,2.60
2023-12-13T09:48:46.934Z,2.70
2023-12-13T09:53:50.898Z,2.83
2023-12-13T09:58:55.538Z,2.50
2023-12-13T10:03:58.798Z,2.37
2023-12-13T10:09:02.712Z,2.20
2023-12-13T10:14:07.151Z,2.13
2023-12-13T10:19:10.322Z,2.33
2023-12-13T10:24:13.633Z,2.20
2023-12-13T10:29:18.313Z,2.10
2023-12-13T10:34:21.521Z,2.27
2023-12-13T10:39:26.634Z,2.47
2023-12-13T10:44:35.662Z,2.23
2023-12-13T10:49:40.359Z,2.27
2023-12-13T10:54:44.088Z,2.30
2023-12-13T10:59:49.679Z,2.30
2023-12-13T11:04:53.404Z,2.27
2023-12-13T11:09:57.059Z,2.33
2023-12-13T11:15:04.862Z,2.10
2023-12-13T11:20:11.054Z,3.40
2023-12-13T11:25:14.415Z,3.80
2023-12-13T11:30:20.952Z,1.73
2023-12-13T11:35:25.080Z,1.77
2023-12-13T11:40:29.730Z,1.97
2023-12-13T11:45:34.305Z,1.80
2023-12-13T11:50:37.401Z,1.70
2023-12-13T11:55:40.542Z,2.20
2023-12-13T12:00:45.543Z,1.97
2023-12-13T12:05:49.118Z,1.40
2023-12-13T12:10:53.348Z,1.63
2023-12-13T12:15:57.889Z,1.80
2023-12-13T12:21:00.996Z,1.70
2023-12-13T12:26:08.885Z,1.70
2023-12-13T12:31:16.336Z,1.80
2023-12-13T12:36:21.008Z,1.80
2023-12-13T12:41:26.080Z,1.60
2023-12-13T12:46:30.964Z,2.13
2023-12-13T12:51:34.086Z,1.70
2023-12-13T12:56:37.945Z,1.80
2023-12-13T13:01:44.087Z,1.60
2023-12-13T13:06:47.747Z,1.73
2023-12-13T13:11:50.910Z,1.77
2023-12-13T13:16:55.472Z,1.50
2023-12-13T13:22:03.222Z,1.77
2023-12-13T13:27:18.027Z,1.60
2023-12-13T13:32:27.424Z,1.73
2023-12-13T13:37:31.186Z,1.97
2023-12-13T13:42:34.683Z,1.50
2023-12-13T13:47:39.747Z,1.50
2023-12-13T13:52:43.775Z,1.70
2023-12-13T13:57:46.894Z,1.77
2023-12-13T14:02:51.398Z,1.60
2023-12-13T14:07:55.615Z,1.83
2023-12-13T14:12:58.808Z,1.70
2023-12-13T14:18:05.860Z,1.73
2023-12-13T14:23:10.731Z,2.03
2023-12-13T14:28:13.876Z,1.77
2023-12-13T14:33:18.810Z,2.10
2023-12-13T14:38:21.997Z,1.80
2023-12-13T14:43:25.280Z,2.37
2023-12-13T14:48:29.872Z,8.60
2023-12-13T14:53:33.198Z,3.53
2023-12-13T14:58:37.225Z,3.00
2023-12-13T15:03:41.788Z,3.13
2023-12-13T15:08:44.928Z,3.80
2023-12-13T15:13:48.119Z,7.17
2023-12-13T15:18:53.392Z,3.40
2023-12-13T15:23:56.618Z,3.33
2023-12-13T15:29:00.883Z,3.57
2023-12-13T15:34:05.559Z,3.80
2023-12-13T15:39:08.751Z,4.70
2023-12-13T15:44:13.816Z,4.00
2023-12-13T15:49:18.401Z,7.60
2023-12-13T15:54:21.527Z,9.27
2023-12-13T15:59:25.496Z,21.80
2023-12-13T16:04:29.961Z,10.27
2023-12-13T16:09:34.279Z,12.13
2023-12-13T16:14:37.690Z,9.80
2023-12-13T16:19:42.263Z,10.27
2023-12-13T16:24:48.333Z,11.67
2023-12-13T16:29:52.794Z,8.20
2023-12-13T16:34:58.630Z,7.60
2023-12-13T16:40:01.795Z,10.90
2023-12-13T16:45:05.204Z,9.13
2023-12-13T16:50:11.133Z,10.90
2023-12-13T16:55:14.361Z,10.93
2023-12-13T17:00:18.345Z,10.80
2023-12-13T17:05:23.117Z,12.23
2023-12-13T17:10:29.135Z,10.60
2023-12-13T17:15:32.298Z,12.47
2023-12-13T17:20:36.817Z,14.77
2023-12-13T17:25:39.912Z,15.97
2023-12-13T17:30:43.275Z,13.27
2023-12-13T17:35:47.732Z,11.37
2023-12-13T17:40:50.865Z,10.40
2023-12-13T17:45:54.103Z,14.40
2023-12-13T17:50:58.706Z,12.63
2023-12-13T17:56:01.991Z,12.00
2023-12-13T18:01:05.555Z,10.80
2023-12-13T18:06:10.848Z,8.90
2023-12-13T18:11:14.161Z,9.10
2023-12-13T18:16:17.243Z,10.43
2023-12-13T18:21:21.781Z,10.13
2023-12-13T18:26:24.814Z,9.20
2023-12-13T18:31:27.929Z,9.80
2023-12-13T18:36:32.471Z,9.20
2023-12-13T18:41:35.663Z,10.50
2023-12-13T18:46:38.798Z,12.47
2023-12-13T18:51:43.320Z,12.57
2023-12-13T18:56:46.418Z,14.40
2023-12-13T19:01:49.615Z,14.77
2023-12-13T19:06:54.262Z,18.20
2023-12-13T19:11:57.511Z,18.47
2023-12-13T19:17:00.665Z,17.50
2023-12-13T19:22:05.571Z,19.07
2023-12-13T19:27:08.671Z,17.00
2023-12-13T19:32:11.886Z,18.00
2023-12-13T19:37:16.376Z,20.00
2023-12-13T19:42:19.736Z,18.30
2023-12-13T19:47:23.019Z,17.67
2023-12-13T19:52:27.646Z,16.87
2023-12-13T19:57:30.736Z,14.37
2023-12-13T20:02:33.867Z,17.57
2023-12-13T20:07:38.626Z,18.13
2023-12-13T20:12:41.813Z,12.50
2023-12-13T20:17:45.148Z,16.60
2023-12-13T20:22:49.651Z,14.03
2023-12-13T20:27:52.863Z,13.10
2023-12-13T20:32:56.046Z,9.13
2023-12-13T20:38:01.856Z,5.90
2023-12-13T20:43:05.195Z,7.80
2023-12-13T20:48:08.338Z,5.40
2023-12-13T20:53:12.847Z,17.60
2023-12-13T20:58:15.964Z,14.40
2023-12-13T21:03:19.094Z,14.10
2023-12-13T21:08:23.684Z,13.10
2023-12-13T21:13:26.903Z,10.03
2023-12-13T21:18:30.239Z,10.97
2023-12-13T21:23:34.881Z,7.00
2023-12-13T21:28:38.457Z,6.83
2023-12-13T21:33:41.635Z,12.77
2023-12-13T21:38:47.348Z,12.53
2023-12-13T21:43:50.612Z,14.90
2023-12-13T21:48:54.433Z,12.73
2023-12-13T21:53:59.013Z,13.27
2023-12-13T21:59:02.439Z,12.03
2023-12-13T22:04:07.404Z,7.00
2023-12-13T22:09:12.092Z,19.13
2023-12-13T22:14:15.170Z,12.77
2023-12-13T22:19:37.677Z,13.50
2023-12-13T22:24:42.546Z,11.93
2023-12-13T22:29:45.716Z,10.77
2023-12-13T22:34:49.272Z,12.20
2023-12-13T22:39:53.841Z,12.30
2023-12-13T22:44:56.984Z,11.93
2023-12-13T22:50:00.289Z,11.13
2023-12-13T22:55:05.809Z,10.77
2023-12-13T23:00:17.794Z,10.60
2023-12-13T23:05:21.292Z,10.57
2023-12-13T23:10:25.875Z,10.90
2023-12-13T23:15:29.450Z,10.90
2023-12-13T23:20:32.535Z,10.70
2023-12-13T23:25:40.484Z,9.33
2023-12-13T23:30:43.663Z,9.60
2023-12-13T23:35:46.777Z,9.67
2023-12-13T23:40:51.306Z,8.80
2023-12-13T23:45:54.455Z,10.57
2023-12-13T23:50:57.618Z,9.23
2023-12-13T23:56:02.223Z,10.13
